Time;durP1;ratioP1;P1;durP2;ratioP2;P2;SDS_P1;SDS_P2;PMS_P1;PMS_P2;Temp;Humidity;BMP_temperature;BMP_pressure;BME280_temperature;BME280_humidity;BME280_pressure;Samples;Min_cycle;Max_cycle;Signal;HPM_P1;HPM_P2
2021/05/02 00:01:39;;;;;;;4.57;3.58;;;11.80;55.10;;;;;;4733566;30;20032;-85
2021/05/02 00:04:05;;;;;;;4.95;3.67;;;11.70;55.00;;;;;;4740054;30;20044;-84
2021/05/02 00:06:32;;;;;;;5.20;3.80;;;11.70;55.10;;;;;;4744612;30;20040;-84
2021/05/02 00:08:58;;;;;;;4.72;3.72;;;11.70;55.10;;;;;;4737817;30;20127;-83
2021/05/02 00:11:24;;;;;;;5.30;4.18;;;11.70;55.10;;;;;;4736642;30;20542;-84
2021/05/02 00:13:49;;;;;;;5.45;4.10;;;11.70;55.20;;;;;;4714169;30;20482;-84
2021/05/02 00:16:16;;;;;;;5.60;4.30;;;11.70;55.20;;;;;;4747185;30;20064;-84
2021/05/02 00:18:42;;;;;;;5.10;3.90;;;11.70;55.30;;;;;;4749446;30;20090;-83
2021/05/02 00:21:11;;;;;;;5.38;3.95;;;11.60;55.30;;;;;;4741785;30;20517;-82
2021/05/02 00:23:39;;;;;;;5.28;3.97;;;11.60;55.30;;;;;;4737897;30;20049;-84
2021/05/02 00:26:06;;;;;;;4.78;3.85;;;11.60;55.40;;;;;;4738236;30;20058;-84
2021/05/02 00:28:33;;;;;;;4.82;3.90;;;11.60;55.40;;;;;;4748783;30;20028;-84
2021/05/02 00:31:06;;;;;;;5.85;4.15;;;11.60;55.40;;;;;;4712907;30;20053;-84
2021/05/02 00:33:35;;;;;;;5.28;4.00;;;11.50;55.50;;;;;;4749195;30;20029;-84
2021/05/02 00:36:02;;;;;;;4.45;3.60;;;11.60;55.50;;;;;;4720433;30;20111;-87
2021/05/02 00:38:28;;;;;;;5.70;4.05;;;11.50;55.50;;;;;;4749902;30;20033;-84
2021/05/02 00:40:57;;;;;;;4.97;3.78;;;11.50;55.50;;;;;;4722043;30;20060;-84
2021/05/02 00:43:44;;;;;;;4.90;3.78;;;11.50;55.60;;;;;;4740664;30;20060;-85
2021/05/02 00:46:24;;;;;;;4.35;3.40;;;11.50;55.70;;;;;;4734956;30;20051;-84
2021/05/02 00:49:02;;;;;;;5.07;3.72;;;11.40;55.70;;;;;;4749653;30;20024;-85
2021/05/02 00:51:30;;;;;;;5.10;3.90;;;11.40;55.70;;;;;;4753600;30;20036;-82
2021/05/02 00:54:14;;;;;;;5.40;4.30;;;11.40;55.60;;;;;;4751729;30;20025;-82
2021/05/02 00:57:02;;;;;;;5.03;3.85;;;11.40;55.80;;;;;;4727495;30;20032;-82
2021/05/02 00:59:44;;;;;;;4.80;3.65;;;11.40;55.80;;;;;;4739071;30;20036;-82
2021/05/02 01:02:13;;;;;;;4.82;3.50;;;11.30;55.70;;;;;;4761689;30;20040;-82
2021/05/02 01:04:43;;;;;;;4.88;3.75;;;11.30;55.70;;;;;;4725987;30;20039;-83
2021/05/02 01:07:19;;;;;;;4.53;3.30;;;11.30;55.80;;;;;;4756714;30;20032;-83
2021/05/02 01:09:46;;;;;;;5.20;3.70;;;11.30;55.90;;;;;;4735586;30;20091;-83
2021/05/02 01:12:13;;;;;;;4.97;3.58;;;11.30;55.80;;;;;;4731980;30;20075;-82
2021/05/02 01:14:46;;;;;;;4.80;3.67;;;11.20;55.80;;;;;;4716579;30;20119;-83
2021/05/02 01:17:14;;;;;;;5.25;4.00;;;11.20;55.90;;;;;;4757579;30;20033;-84
2021/05/02 01:19:41;;;;;;;4.65;3.45;;;11.20;55.90;;;;;;4739246;30;20029;-83
2021/05/02 01:22:16;;;;;;;4.75;3.53;;;11.20;56.00;;;;;;4719800;30;20417;-83
2021/05/02 01:24:47;;;;;;;4.80;3.72;;;11.20;56.00;;;;;;4742336;30;20033;-84
2021/05/02 01:27:23;;;;;;;5.25;3.97;;;11.20;56.00;;;;;;4723502;30;20494;-83
2021/05/02 01:29:49;;;;;;;5.68;3.65;;;11.20;56.10;;;;;;4738617;30;20143;-83
2021/05/02 01:32:15;;;;;;;4.38;3.25;;;11.20;56.00;;;;;;4737487;30;20032;-83
2021/05/02 01:34:41;;;;;;;5.15;3.72;;;11.10;56.10;;;;;;4738185;30;20502;-83
2021/05/02 01:37:07;;;;;;;4.20;3.42;;;11.10;56.10;;;;;;4734171;30;20098;-83
2021/05/02 01:39:34;;;;;;;4.43;3.35;;;11.10;56.10;;;;;;4736709;30;20043;-84
2021/05/02 01:42:00;;;;;;;4.15;3.22;;;11.10;56.10;;;;;;4758394;30;20395;-83
2021/05/02 01:44:26;;;;;;;5.70;3.70;;;11.10;56.10;;;;;;4718586;30;20060;-84
2021/05/02 01:46:52;;;;;;;4.10;3.03;;;11.10;56.10;;;;;;4734235;30;20440;-83
2021/05/02 01:49:22;;;;;;;4.70;3.40;;;11.10;56.20;;;;;;4719817;30;20163;-86
2021/05/02 01:51:49;;;;;;;4.40;3.30;;;11.10;56.20;;;;;;4733597;30;20041;-89
2021/05/02 01:54:15;;;;;;;4.93;3.30;;;11.10;56.20;;;;;;4719356;30;20037;-83
2021/05/02 01:56:42;;;;;;;4.45;3.13;;;11.10;56.20;;;;;;4719219;30;20057;-83
2021/05/02 01:59:09;;;;;;;4.20;3.05;;;11.10;56.20;;;;;;4730353;30;20070;-83
2021/05/02 02:01:35;;;;;;;4.28;3.08;;;11.10;56.20;;;;;;4741929;30;20052;-83
2021/05/02 02:04:07;;;;;;;4.30;2.85;;;11.10;56.30;;;;;;4734374;30;20442;-84
2021/05/02 02:06:34;;;;;;;3.35;2.85;;;11.00;56.30;;;;;;4722587;30;20033;-87
2021/05/02 02:09:04;;;;;;;4.13;3.15;;;11.00;56.20;;;;;;4735678;30;20032;-83
2021/05/02 02:11:31;;;;;;;3.88;3.05;;;11.00;56.20;;;;;;4748533;30;20036;-83
2021/05/02 02:13:58;;;;;;;4.47;2.88;;;11.00;56.30;;;;;;4726062;30;20033;-83
2021/05/02 02:16:24;;;;;;;3.45;2.80;;;11.00;56.30;;;;;;4736192;30;20101;-83
2021/05/02 02:18:51;;;;;;;4.38;3.17;;;11.00;56.30;;;;;;4718702;30;20549;-83
2021/05/02 02:21:21;;;;;;;3.67;2.75;;;11.00;56.30;;;;;;4733875;30;20037;-83
2021/05/02 02:24:01;;;;;;;3.50;2.67;;;11.00;56.30;;;;;;4748230;30;20041;-83
2021/05/02 02:26:30;;;;;;;4.93;2.88;;;10.90;56.30;;;;;;4738382;30;20480;-83
2021/05/02 02:28:58;;;;;;;3.72;2.95;;;10.90;56.30;;;;;;4733514;30;20039;-83
2021/05/02 02:31:24;;;;;;;3.00;2.40;;;10.90;56.30;;;;;;4733542;30;20033;-83
2021/05/02 02:33:50;;;;;;;2.95;2.25;;;10.90;56.30;;;;;;4717722;30;20033;-83
2021/05/02 02:36:17;;;;;;;3.13;2.63;;;10.90;56.40;;;;;;4734976;30;20044;-83
2021/05/02 02:38:44;;;;;;;3.90;2.60;;;10.90;56.30;;;;;;4727816;30;20020;-83
2021/05/02 02:41:17;;;;;;;3.28;2.63;;;10.90;56.40;;;;;;4739220;30;20036;-83
2021/05/02 02:43:52;;;;;;;3.30;2.50;;;10.80;56.40;;;;;;4758668;30;20048;-84
2021/05/02 02:46:19;;;;;;;3.22;2.38;;;10.80;56.40;;;;;;4750777;30;20032;-83
2021/05/02 02:48:51;;;;;;;3.92;2.60;;;10.80;56.40;;;;;;4731265;30;20086;-84
2021/05/02 02:51:18;;;;;;;3.58;2.50;;;10.70;56.40;;;;;;4742177;30;20075;-83
2021/05/02 02:53:46;;;;;;;2.97;2.35;;;10.70;56.40;;;;;;4733240;30;20127;-85
2021/05/02 02:56:22;;;;;;;4.93;2.78;;;10.70;56.40;;;;;;4762080;30;20085;-83
2021/05/02 02:59:01;;;;;;;3.38;2.50;;;10.70;56.40;;;;;;4751374;30;20048;-84
2021/05/02 03:01:27;;;;;;;3.20;2.40;;;10.70;56.50;;;;;;4751825;30;20051;-83
2021/05/02 03:03:57;;;;;;;2.72;2.10;;;10.70;56.40;;;;;;4733764;30;20037;-83
2021/05/02 03:06:26;;;;;;;3.35;2.42;;;10.60;56.40;;;;;;4743106;30;20036;-84
2021/05/02 03:08:57;;;;;;;3.45;2.67;;;10.60;56.50;;;;;;4744956;30;20043;-84
2021/05/02 03:11:24;;;;;;;2.67;2.30;;;10.60;56.50;;;;;;4741489;30;20036;-83
2021/05/02 03:13:50;;;;;;;3.05;2.40;;;10.60;56.50;;;;;;4731906;30;20517;-83
2021/05/02 03:16:25;;;;;;;3.20;2.40;;;10.60;56.50;;;;;;4737278;30;20032;-83
2021/05/02 03:19:24;;;;;;;2.88;2.20;;;10.50;56.50;;;;;;4757485;30;20099;-83
2021/05/02 03:22:01;;;;;;;4.75;2.40;;;10.50;56.60;;;;;;4738412;30;20040;-83
2021/05/02 03:24:33;;;;;;;3.35;2.35;;;10.50;56.50;;;;;;4729673;30;20040;-84
2021/05/02 03:27:04;;;;;;;3.05;2.40;;;10.50;56.60;;;;;;4754232;30;20457;-83
2021/05/02 03:29:40;;;;;;;2.22;1.95;;;10.50;56.60;;;;;;4744725;30;20028;-84
2021/05/02 03:32:10;;;;;;;3.10;2.28;;;10.50;56.60;;;;;;4753619;30;20028;-84
2021/05/02 03:34:41;;;;;;;3.35;2.33;;;10.50;56.60;;;;;;4738789;30;20036;-84
2021/05/02 03:37:16;;;;;;;3.85;2.25;;;10.50;56.60;;;;;;4758132;30;20510;-84
2021/05/02 03:39:47;;;;;;;3.53;2.10;;;10.40;56.70;;;;;;4747928;30;20474;-85
2021/05/02 03:42:14;;;;;;;3.67;2.33;;;10.50;56.70;;;;;;4750343;30;20032;-83
2021/05/02 03:44:39;;;;;;;3.45;2.42;;;10.40;56.70;;;;;;4729599;30;20143;-82
2021/05/02 03:47:05;;;;;;;3.25;2.20;;;10.40;56.70;;;;;;4724789;30;20212;-85
2021/05/02 03:49:31;;;;;;;2.75;2.20;;;10.40;56.70;;;;;;4721426;30;20037;-83
2021/05/02 03:51:58;;;;;;;3.22;2.25;;;10.40;56.70;;;;;;4740644;30;20064;-86
2021/05/02 03:54:23;;;;;;;2.97;1.98;;;10.40;56.70;;;;;;4750706;30;20061;-83
2021/05/02 03:56:49;;;;;;;2.65;2.20;;;10.40;56.80;;;;;;4727862;30;20467;-84
2021/05/02 03:59:17;;;;;;;3.08;2.22;;;10.40;56.70;;;;;;4743682;30;20036;-83
2021/05/02 04:01:50;;;;;;;3.38;2.13;;;10.40;56.80;;;;;;4738126;30;20373;-83
2021/05/02 04:04:17;;;;;;;2.72;2.00;;;10.40;56.80;;;;;;4753079;30;20037;-84
2021/05/02 04:06:43;;;;;;;2.47;1.90;;;10.30;56.70;;;;;;4721053;30;20036;-84
2021/05/02 04:09:11;;;;;;;2.80;1.85;;;10.30;56.80;;;;;;4735047;30;20139;-84
2021/05/02 04:11:38;;;;;;;2.88;2.03;;;10.30;56.80;;;;;;4730686;30;20061;-83
2021/05/02 04:14:09;;;;;;;2.65;2.00;;;10.30;56.80;;;;;;4735391;30;20123;-83
2021/05/02 04:16:35;;;;;;;3.20;2.05;;;10.30;56.90;;;;;;4729856;30;20048;-84
2021/05/02 04:19:02;;;;;;;2.88;1.88;;;10.30;56.80;;;;;;4742818;30;20036;-83
2021/05/02 04:21:28;;;;;;;3.83;2.10;;;10.30;56.90;;;;;;4760435;30;20041;-83
2021/05/02 04:23:54;;;;;;;2.80;1.88;;;10.20;56.80;;;;;;4722246;30;20047;-82
2021/05/02 04:26:20;;;;;;;3.25;2.20;;;10.20;56.80;;;;;;4744732;30;20032;-83
2021/05/02 04:28:46;;;;;;;2.60;1.90;;;10.20;57.50;;;;;;4764330;30;20024;-83
2021/05/02 04:31:12;;;;;;;2.47;1.88;;;10.20;56.90;;;;;;4730215;30;20106;-83
2021/05/02 04:33:39;;;;;;;2.45;1.75;;;10.20;56.90;;;;;;4732704;30;20053;-83
2021/05/02 04:36:05;;;;;;;2.50;1.90;;;10.20;56.90;;;;;;4742107;30;20050;-87
2021/05/02 04:38:31;;;;;;;2.40;1.90;;;10.10;56.90;;;;;;4741709;30;20025;-83
2021/05/02 04:40:58;;;;;;;2.50;1.83;;;10.10;56.90;;;;;;4746067;30;20033;-83
2021/05/02 04:43:23;;;;;;;2.58;1.95;;;10.10;56.90;;;;;;4734892;30;20097;-83
2021/05/02 04:45:49;;;;;;;2.85;1.88;;;10.10;56.90;;;;;;4731668;30;20071;-85
2021/05/02 04:48:15;;;;;;;3.00;1.70;;;10.10;56.90;;;;;;4725445;30;20091;-83
2021/05/02 04:50:41;;;;;;;2.20;1.85;;;10.10;56.90;;;;;;4737105;30;20033;-83
2021/05/02 04:53:07;;;;;;;2.85;1.83;;;10.10;56.90;;;;;;4722507;30;20036;-83
2021/05/02 04:55:33;;;;;;;3.60;2.03;;;10.10;56.90;;;;;;4733992;30;20123;-84
2021/05/02 04:58:01;;;;;;;2.13;1.83;;;10.00;56.90;;;;;;4734805;30;20120;-83
2021/05/02 05:00:28;;;;;;;2.75;1.70;;;10.00;57.00;;;;;;4735350;30;20048;-82
2021/05/02 05:02:56;;;;;;;2.30;1.75;;;10.00;57.00;;;;;;4734483;30;20033;-83
2021/05/02 05:05:22;;;;;;;3.13;1.67;;;10.00;57.00;;;;;;4750446;30;20035;-84
2021/05/02 05:07:47;;;;;;;3.05;2.05;;;10.00;57.00;;;;;;4751112;30;20391;-83
2021/05/02 05:10:13;;;;;;;2.17;1.75;;;10.00;57.00;;;;;;4743050;30;20375;-83
2021/05/02 05:12:40;;;;;;;2.75;1.85;;;9.90;56.90;;;;;;4718388;30;20033;-84
2021/05/02 05:15:07;;;;;;;2.80;1.90;;;9.90;57.00;;;;;;4736671;30;20060;-84
2021/05/02 05:17:33;;;;;;;2.05;1.58;;;9.90;57.00;;;;;;4710055;30;20029;-84
2021/05/02 05:19:58;;;;;;;1.90;1.58;;;9.90;57.00;;;;;;4719863;30;20055;-83
2021/05/02 05:22:24;;;;;;;2.22;1.58;;;9.90;57.00;;;;;;4740236;30;20386;-83
2021/05/02 05:24:50;;;;;;;2.25;1.70;;;9.90;57.00;;;;;;4743773;30;20064;-83
2021/05/02 05:27:16;;;;;;;3.13;1.85;;;9.90;57.00;;;;;;4716912;30;20037;-84
2021/05/02 05:29:42;;;;;;;2.28;1.85;;;9.90;57.10;;;;;;4720175;30;20037;-83
2021/05/02 05:32:08;;;;;;;2.38;1.85;;;9.80;57.00;;;;;;4748829;30;20048;-83
2021/05/02 05:34:34;;;;;;;2.30;1.80;;;9.80;57.00;;;;;;4719595;30;20044;-82
2021/05/02 05:37:00;;;;;;;2.63;1.75;;;9.80;57.00;;;;;;4733270;30;20041;-83
2021/05/02 05:39:25;;;;;;;2.10;1.73;;;9.80;57.00;;;;;;4748711;30;20037;-84
2021/05/02 05:41:52;;;;;;;2.20;1.70;;;9.80;57.00;;;;;;4745308;30;20048;-83
2021/05/02 05:44:18;;;;;;;2.88;1.88;;;9.80;57.10;;;;;;4717187;30;20053;-83
2021/05/02 05:46:44;;;;;;;3.75;1.90;;;9.80;57.10;;;;;;4726512;30;20033;-88
2021/05/02 05:49:09;;;;;;;3.00;1.90;;;9.80;57.10;;;;;;4732540;30;20037;-84
2021/05/02 05:51:35;;;;;;;2.00;1.70;;;9.80;57.10;;;;;;4737263;30;20061;-89
2021/05/02 05:54:02;;;;;;;1.95;1.70;;;9.80;57.20;;;;;;4732168;30;20033;-84
2021/05/02 05:56:28;;;;;;;1.60;1.50;;;9.70;57.10;;;;;;4726200;30;20060;-87
2021/05/02 05:58:54;;;;;;;2.60;1.75;;;9.70;57.10;;;;;;4747880;30;20483;-87
2021/05/02 06:01:20;;;;;;;1.85;1.70;;;9.70;57.10;;;;;;4731475;30;20039;-86
2021/05/02 06:03:45;;;;;;;2.35;1.88;;;9.70;57.20;;;;;;4731566;30;20045;-88
2021/05/02 06:06:11;;;;;;;3.05;1.90;;;9.70;57.20;;;;;;4732405;30;20523;-88
2021/05/02 06:08:37;;;;;;;2.45;1.83;;;9.70;57.20;;;;;;4734282;30;20044;-87
2021/05/02 06:11:03;;;;;;;3.35;1.90;;;9.70;57.20;;;;;;4737227;30;20479;-86
2021/05/02 06:13:29;;;;;;;2.00;1.80;;;9.70;57.20;;;;;;4731907;30;20080;-86
2021/05/02 06:15:54;;;;;;;2.55;1.85;;;9.70;57.30;;;;;;4732677;30;20446;-87
2021/05/02 06:18:20;;;;;;;2.58;1.80;;;9.70;57.30;;;;;;4733469;30;20072;-87
2021/05/02 06:20:46;;;;;;;2.03;1.60;;;9.70;57.30;;;;;;4749406;30;20044;-89
2021/05/02 06:23:12;;;;;;;1.65;1.45;;;9.70;57.30;;;;;;4728862;30;20040;-88
2021/05/02 06:25:38;;;;;;;2.20;1.70;;;9.70;57.40;;;;;;4721166;30;20036;-88
2021/05/02 06:28:04;;;;;;;1.70;1.60;;;9.70;57.40;;;;;;4731431;30;20037;-88
2021/05/02 06:30:30;;;;;;;2.25;1.70;;;9.70;57.40;;;;;;4733647;30;20029;-87
2021/05/02 06:32:56;;;;;;;2.95;1.70;;;9.70;57.40;;;;;;4713360;30;20065;-90
2021/05/02 06:35:22;;;;;;;2.47;1.60;;;9.70;57.40;;;;;;4746204;30;20025;-90
2021/05/02 06:37:48;;;;;;;1.90;1.52;;;9.70;57.40;;;;;;4717070;30;20037;-90
2021/05/02 06:40:14;;;;;;;1.88;1.63;;;9.70;57.40;;;;;;4732696;30;20036;-90
2021/05/02 06:42:41;;;;;;;1.95;1.50;;;9.70;57.40;;;;;;4732524;30;20480;-89
2021/05/02 06:45:08;;;;;;;3.17;2.05;;;9.70;57.40;;;;;;4748562;30;20036;-88
2021/05/02 06:47:33;;;;;;;1.98;1.73;;;9.70;57.50;;;;;;4738423;30;20047;-88
2021/05/02 06:49:59;;;;;;;2.20;1.70;;;9.70;57.50;;;;;;4753130;30;20032;-90
2021/05/02 06:52:25;;;;;;;1.55;1.40;;;9.70;57.40;;;;;;4736498;30;20112;-89
2021/05/02 06:54:51;;;;;;;1.90;1.70;;;9.80;58.10;;;;;;4748753;30;20127;-89
2021/05/02 06:57:17;;;;;;;1.58;1.40;;;9.80;57.50;;;;;;4721700;30;20041;-89
2021/05/02 06:59:43;;;;;;;2.28;1.52;;;9.80;57.50;;;;;;4740664;30;20371;-88
2021/05/02 07:02:09;;;;;;;1.77;1.40;;;9.80;57.50;;;;;;4728000;30;20047;-90
2021/05/02 07:04:35;;;;;;;3.33;1.90;;;9.80;57.50;;;;;;4734885;30;20057;-93
2021/05/02 07:07:02;;;;;;;1.95;1.50;;;9.80;57.50;;;;;;4733995;30;20049;-89
2021/05/02 07:09:28;;;;;;;1.35;1.20;;;9.80;57.60;;;;;;4736126;30;20145;-91
2021/05/02 07:11:53;;;;;;;1.63;1.50;;;9.80;57.50;;;;;;4742804;30;20141;-89
2021/05/02 07:14:19;;;;;;;2.45;1.50;;;9.80;57.50;;;;;;4744278;30;20040;-91
2021/05/02 07:16:45;;;;;;;1.75;1.58;;;9.80;57.60;;;;;;4738912;30;20141;-92
2021/05/02 07:19:12;;;;;;;1.98;1.50;;;9.80;57.60;;;;;;4743997;30;20399;-90
2021/05/02 07:21:38;;;;;;;3.10;1.50;;;9.80;57.70;;;;;;4719770;30;20037;-91
2021/05/02 07:24:05;;;;;;;1.50;1.40;;;9.80;57.70;;;;;;4718794;30;20096;-90
2021/05/02 07:26:31;;;;;;;1.30;1.20;;;9.90;57.70;;;;;;4730435;30;20125;-89
2021/05/02 07:28:57;;;;;;;1.95;1.40;;;9.90;57.70;;;;;;4731094;30;20033;-86
2021/05/02 07:31:23;;;;;;;1.88;1.45;;;9.90;57.70;;;;;;4732568;30;20064;-86
2021/05/02 07:33:49;;;;;;;2.72;1.42;;;9.90;57.70;;;;;;4734371;30;20506;-86
2021/05/02 07:36:15;;;;;;;1.80;1.38;;;10.00;57.80;;;;;;4722041;30;20025;-87
2021/05/02 07:38:42;;;;;;;2.05;1.40;;;10.00;57.70;;;;;;4743756;30;20123;-84
2021/05/02 07:41:08;;;;;;;1.55;1.23;;;10.00;57.70;;;;;;4736709;30;20120;-85
2021/05/02 07:43:34;;;;;;;1.30;1.20;;;10.00;57.70;;;;;;4747124;30;20079;-85
2021/05/02 07:46:01;;;;;;;1.13;1.08;;;10.00;57.70;;;;;;4724514;30;20467;-87
2021/05/02 07:48:26;;;;;;;1.35;1.25;;;10.10;57.70;;;;;;4756101;30;20064;-84
2021/05/02 07:50:52;;;;;;;1.33;1.23;;;10.10;57.70;;;;;;4746016;30;20482;-87
2021/05/02 07:53:18;;;;;;;1.45;1.35;;;10.10;57.70;;;;;;4744031;30;20486;-87
2021/05/02 07:55:44;;;;;;;2.67;1.33;;;10.10;57.60;;;;;;4759137;30;20050;-87
2021/05/02 07:58:10;;;;;;;1.10;1.10;;;10.20;57.60;;;;;;4734548;30;20098;-87
2021/05/02 08:00:36;;;;;;;1.52;1.25;;;10.30;57.70;;;;;;4740641;30;20124;-84
2021/05/02 08:03:01;;;;;;;1.80;1.40;;;10.30;57.50;;;;;;4739825;30;20037;-85
2021/05/02 08:05:29;;;;;;;1.48;1.35;;;10.40;57.40;;;;;;4738840;30;20037;-93
2021/05/02 08:07:55;;;;;;;1.38;1.27;;;10.40;57.40;;;;;;4743930;30;20128;-92
2021/05/02 08:10:21;;;;;;;1.83;1.20;;;10.40;57.30;;;;;;4735381;30;20473;-86
2021/05/02 08:12:47;;;;;;;1.48;1.20;;;10.50;57.20;;;;;;4755468;30;20043;-88
2021/05/02 08:15:13;;;;;;;1.00;1.00;;;10.50;57.10;;;;;;4722582;30;20035;-87
2021/05/02 08:17:39;;;;;;;1.10;1.00;;;10.60;57.10;;;;;;4721605;30;20040;-86
2021/05/02 08:20:07;;;;;;;1.27;1.17;;;10.60;57.10;;;;;;4752808;30;20044;-85
2021/05/02 08:22:33;;;;;;;1.20;1.10;;;10.70;57.10;;;;;;4740807;30;20068;-83
2021/05/02 08:24:59;;;;;;;1.30;0.93;;;10.70;57.00;;;;;;4750152;30;20463;-85
2021/05/02 08:27:25;;;;;;;1.20;1.10;;;10.80;57.00;;;;;;4738039;30;20102;-84
2021/05/02 08:29:51;;;;;;;2.05;1.10;;;10.80;57.50;;;;;;4751864;30;20040;-83
2021/05/02 08:32:17;;;;;;;1.30;1.20;;;10.90;56.80;;;;;;4724890;30;20035;-83
2021/05/02 08:34:42;;;;;;;1.77;1.27;;;11.00;56.80;;;;;;4735205;30;20044;-82
2021/05/02 08:37:08;;;;;;;2.00;1.25;;;11.00;56.70;;;;;;4736638;30;20510;-83
2021/05/02 08:39:35;;;;;;;1.23;1.13;;;11.10;56.70;;;;;;4735308;30;20032;-83
2021/05/02 08:42:00;;;;;;;1.30;1.20;;;11.10;56.60;;;;;;4740773;30;20051;-83
2021/05/02 08:44:29;;;;;;;1.25;1.15;;;11.20;56.60;;;;;;4733727;30;20057;-82
2021/05/02 08:46:55;;;;;;;1.17;1.08;;;11.20;56.50;;;;;;4754529;30;20075;-86
2021/05/02 08:49:21;;;;;;;1.98;1.15;;;11.30;56.40;;;;;;4735696;30;20464;-84
2021/05/02 08:51:48;;;;;;;0.95;0.90;;;11.40;56.40;;;;;;4740630;30;20092;-84
2021/05/02 08:54:13;;;;;;;1.08;1.00;;;11.40;56.30;;;;;;4742126;30;20082;-84
2021/05/02 08:56:39;;;;;;;0.93;0.93;;;11.50;56.20;;;;;;4732000;30;20793;-84
2021/05/02 08:59:07;;;;;;;1.10;1.00;;;11.50;56.10;;;;;;4745609;30;20036;-83
2021/05/02 09:01:34;;;;;;;1.75;1.25;;;11.60;56.10;;;;;;4752617;30;20081;-85
2021/05/02 09:04:04;;;;;;;1.20;1.10;;;11.70;56.00;;;;;;4741575;30;20051;-84
2021/05/02 09:06:30;;;;;;;1.48;1.20;;;11.80;55.90;;;;;;4736517;30;20032;-84
2021/05/02 09:09:04;;;;;;;1.02;0.93;;;11.80;55.80;;;;;;4741294;30;20034;-87
2021/05/02 09:11:44;;;;;;;1.00;0.90;;;11.90;55.70;;;;;;4740360;30;20119;-83
2021/05/02 09:14:17;;;;;;;1.30;1.20;;;12.00;55.70;;;;;;4744364;30;20036;-85
2021/05/02 09:16:51;;;;;;;0.95;0.95;;;12.10;55.70;;;;;;4749221;30;20033;-86
2021/05/02 09:19:22;;;;;;;1.35;1.25;;;12.10;55.60;;;;;;4749135;30;20504;-85
2021/05/02 09:21:49;;;;;;;1.20;1.00;;;12.20;55.60;;;;;;4731672;30;20045;-85
2021/05/02 09:24:25;;;;;;;1.20;1.10;;;12.30;55.50;;;;;;4734545;30;20106;-85
2021/05/02 09:27:12;;;;;;;0.90;0.90;;;12.40;55.60;;;;;;4722628;30;20052;-86
2021/05/02 09:29:41;;;;;;;0.80;0.80;;;12.50;55.50;;;;;;4744578;30;20119;-83
2021/05/02 09:32:08;;;;;;;0.90;0.90;;;12.60;55.30;;;;;;4743863;30;20036;-84
2021/05/02 09:34:35;;;;;;;1.27;0.85;;;12.60;55.30;;;;;;4734321;30;20755;-84
2021/05/02 09:37:05;;;;;;;0.73;0.73;;;12.70;55.20;;;;;;4749712;30;20024;-81
2021/05/02 09:39:35;;;;;;;0.82;0.80;;;12.80;55.20;;;;;;4748273;30;21558;-84
2021/05/02 09:42:06;;;;;;;1.27;1.10;;;12.90;55.10;;;;;;4732193;30;20072;-83
2021/05/02 09:44:57;;;;;;;1.15;0.90;;;13.00;55.10;;;;;;4730944;30;20056;-84
2021/05/02 09:47:35;;;;;;;0.95;0.88;;;13.10;55.10;;;;;;4719427;30;20051;-83
2021/05/02 09:50:23;;;;;;;0.70;0.70;;;13.20;54.80;;;;;;4734216;30;20036;-86
2021/05/02 09:53:14;;;;;;;0.75;0.75;;;13.30;54.90;;;;;;4716763;30;20444;-87
2021/05/02 09:55:44;;;;;;;1.67;1.10;;;13.40;54.80;;;;;;4731571;30;20079;-89
2021/05/02 10:00:49;;;;;;;1.52;1.00;;;13.50;54.60;;;;;;4732611;30;20110;-85
2021/05/02 10:03:38;;;;;;;0.77;0.77;;;13.60;54.60;;;;;;4731085;30;20037;-85
2021/05/02 10:06:10;;;;;;;1.10;1.00;;;13.60;54.50;;;;;;4732767;30;20518;-88
2021/05/02 10:08:38;;;;;;;0.75;0.75;;;13.70;54.50;;;;;;4728477;30;20036;-88
2021/05/02 10:11:09;;;;;;;0.80;0.80;;;13.70;54.40;;;;;;4732399;30;20041;-88
2021/05/02 10:13:35;;;;;;;1.00;0.90;;;13.80;54.40;;;;;;4724755;30;20033;-87
2021/05/02 10:16:02;;;;;;;1.15;0.98;;;13.80;54.40;;;;;;4728936;30;20029;-89
2021/05/02 10:18:30;;;;;;;0.80;0.80;;;13.80;54.40;;;;;;4724822;30;20063;-89
2021/05/02 10:20:55;;;;;;;1.13;0.90;;;13.90;55.00;;;;;;4745570;30;20487;-89
2021/05/02 10:23:21;;;;;;;1.27;0.95;;;13.90;54.30;;;;;;4751909;30;20035;-86
2021/05/02 10:25:49;;;;;;;0.80;0.80;;;13.90;54.20;;;;;;4725339;30;20467;-90
2021/05/02 10:28:21;;;;;;;0.73;0.73;;;13.90;54.20;;;;;;4751942;30;20075;-89
2021/05/02 10:30:49;;;;;;;1.05;0.93;;;14.00;54.30;;;;;;4748984;30;20047;-90
2021/05/02 10:33:29;;;;;;;1.10;0.95;;;14.00;54.10;;;;;;4748660;30;20495;-90
2021/05/02 10:35:58;;;;;;;1.30;0.90;;;14.00;54.00;;;;;;4735609;30;20036;-89
2021/05/02 10:38:44;;;;;;;0.98;0.90;;;14.10;54.00;;;;;;4720030;30;20036;-84
2021/05/02 10:41:32;;;;;;;0.82;0.80;;;14.10;54.10;;;;;;4727537;30;20033;-88
2021/05/02 10:44:20;;;;;;;0.80;0.80;;;14.10;53.90;;;;;;4748224;30;20060;-88
2021/05/02 10:46:53;;;;;;;0.90;0.90;;;14.20;53.90;;;;;;4730662;30;20052;-86
2021/05/02 10:49:19;;;;;;;0.93;0.93;;;14.30;53.80;;;;;;4748587;30;20049;-88
2021/05/02 10:51:49;;;;;;;0.70;0.70;;;14.30;53.70;;;;;;4748013;30;20557;-89
2021/05/02 10:54:22;;;;;;;0.85;0.85;;;14.40;53.70;;;;;;4733287;30;20040;-87
2021/05/02 10:56:55;;;;;;;1.23;0.90;;;14.40;53.60;;;;;;4741442;30;20033;-87
2021/05/02 10:59:26;;;;;;;0.93;0.90;;;14.60;53.60;;;;;;4758961;30;20123;-85
2021/05/02 11:01:53;;;;;;;0.63;0.60;;;14.60;53.60;;;;;;4747244;30;20140;-85
2021/05/02 11:04:20;;;;;;;0.82;0.80;;;14.60;53.50;;;;;;4733787;30;20044;-84
2021/05/02 11:06:48;;;;;;;0.95;0.80;;;14.70;53.40;;;;;;4742002;30;20445;-83
2021/05/02 11:09:18;;;;;;;0.93;0.80;;;14.80;53.30;;;;;;4732574;30;20181;-83
2021/05/02 11:11:50;;;;;;;1.00;0.90;;;14.80;53.20;;;;;;4739957;30;20044;-82
2021/05/02 11:14:21;;;;;;;0.85;0.85;;;14.90;53.10;;;;;;4734092;30;20093;-83
2021/05/02 11:16:49;;;;;;;1.88;1.00;;;14.90;53.70;;;;;;4748242;30;20398;-83
2021/05/02 11:19:22;;;;;;;0.90;0.90;;;15.00;52.90;;;;;;4721837;30;20029;-83
2021/05/02 11:24:14;;;;;;;0.70;0.70;;;15.10;52.70;;;;;;4746291;30;20056;-86
2021/05/02 11:32:27;;;;;;;0.88;0.88;;;15.20;53.20;;;;;;4751184;30;20098;-87
2021/05/02 11:34:54;;;;;;;0.70;0.70;;;15.20;52.40;;;;;;4736294;30;20041;-86
2021/05/02 11:37:45;;;;;;;0.70;0.70;;;15.20;52.40;;;;;;4751847;30;20040;-86
2021/05/02 11:40:29;;;;;;;0.70;0.70;;;15.30;52.50;;;;;;4739192;30;20046;-86
2021/05/02 11:43:09;;;;;;;1.52;0.82;;;15.30;52.40;;;;;;4735222;30;20036;-86
2021/05/02 11:45:56;;;;;;;0.77;0.70;;;15.30;52.30;;;;;;4736457;30;20131;-85
2021/05/02 11:48:36;;;;;;;0.60;0.60;;;15.30;52.30;;;;;;4725480;30;20116;-85
2021/05/02 11:51:08;;;;;;;0.68;0.68;;;15.40;52.30;;;;;;4734968;30;20045;-87
2021/05/02 11:53:48;;;;;;;0.82;0.70;;;15.40;52.30;;;;;;4756281;30;20040;-87
2021/05/02 11:56:19;;;;;;;0.73;0.73;;;15.40;52.30;;;;;;4733551;30;20060;-87
2021/05/02 11:58:45;;;;;;;0.90;0.77;;;15.40;52.20;;;;;;4736067;30;20040;-85
2021/05/02 12:01:15;;;;;;;1.08;0.98;;;15.40;52.20;;;;;;4737909;30;20032;-86
2021/05/02 12:03:44;;;;;;;0.80;0.80;;;15.40;52.10;;;;;;4730934;30;20040;-86
2021/05/02 12:06:20;;;;;;;0.80;0.80;;;15.50;52.20;;;;;;4735852;30;20528;-87
2021/05/02 12:08:46;;;;;;;1.08;0.98;;;15.50;52.20;;;;;;4744143;30;20095;-86
2021/05/02 12:11:13;;;;;;;0.90;0.90;;;15.50;52.10;;;;;;4735566;30;20033;-87
2021/05/02 12:13:51;;;;;;;0.80;0.80;;;15.50;52.10;;;;;;4717713;30;20045;-84
2021/05/02 12:16:19;;;;;;;1.08;0.98;;;15.50;52.10;;;;;;4735123;30;20124;-86
2021/05/02 12:18:54;;;;;;;1.00;1.00;;;15.50;52.10;;;;;;4717110;30;20495;-86
2021/05/02 12:21:36;;;;;;;0.93;0.90;;;15.50;52.10;;;;;;4728036;30;20471;-86
2021/05/02 12:24:19;;;;;;;0.95;0.90;;;15.50;52.10;;;;;;4718478;30;20044;-85
2021/05/02 12:27:10;;;;;;;1.25;1.02;;;15.50;52.10;;;;;;4720984;30;20080;-85
2021/05/02 12:29:42;;;;;;;0.93;0.90;;;15.50;52.10;;;;;;4734390;30;20491;-86
2021/05/02 12:32:15;;;;;;;1.30;1.17;;;15.60;52.10;;;;;;4737583;30;20409;-83
2021/05/02 12:34:47;;;;;;;1.20;1.10;;;15.60;52.10;;;;;;4727297;30;20040;-85
2021/05/02 12:37:17;;;;;;;0.85;0.85;;;15.60;52.10;;;;;;4737753;30;20028;-85
2021/05/02 12:39:46;;;;;;;0.85;0.85;;;15.60;52.10;;;;;;4741958;30;20032;-79
2021/05/02 12:42:12;;;;;;;0.90;0.90;;;15.60;52.00;;;;;;4748686;30;20029;-83
2021/05/02 12:44:40;;;;;;;1.95;0.95;;;15.70;51.90;;;;;;4731961;30;20564;-86
2021/05/02 12:47:20;;;;;;;0.90;0.90;;;15.70;51.80;;;;;;4749923;30;20093;-86
2021/05/02 12:50:05;;;;;;;0.80;0.80;;;15.70;51.90;;;;;;4734429;30;20090;-85
2021/05/02 12:52:40;;;;;;;0.88;0.88;;;15.80;51.90;;;;;;4731777;30;20049;-84
2021/05/02 12:55:20;;;;;;;0.77;0.77;;;15.80;51.80;;;;;;4745200;30;20097;-86
2021/05/02 12:57:51;;;;;;;0.73;0.73;;;15.80;51.80;;;;;;4748340;30;20035;-87
2021/05/02 13:00:19;;;;;;;0.90;0.90;;;15.80;51.70;;;;;;4760698;30;20102;-87
2021/05/02 13:02:46;;;;;;;0.90;0.90;;;15.90;51.70;;;;;;4707577;30;20040;-86
2021/05/02 13:05:21;;;;;;;0.88;0.80;;;15.90;51.70;;;;;;4735163;30;20040;-87
2021/05/02 13:07:49;;;;;;;1.08;0.80;;;16.00;51.70;;;;;;4749560;30;20087;-85
2021/05/02 13:10:18;;;;;;;1.35;0.90;;;16.00;51.70;;;;;;4718157;30;20391;-86